»·PEaware :: AAL1168 MMCZ-MHTG

AAL1168 :: MMCZ-MHTG

FLIGHT INFORMATION

Flight Status: Arrived
Operator:
American Airlines
More flights by this operator :: More flights under this callsign
Pilot: Anonymous 18910 (18910)
Aircraft: AIRBUS A319
(A319)
More flights by this aircraft type
Origin: MMCZ Cozumel Intl
Mexico
Destination: MHTG Toncontin Intl
Honduras
More flights between these airports :: More routes between these airports
Route: ITPIG2A KORTI TALAG MELVO
File this flight plan on PilotEdge
Remarks:
Altitude:
(Current/Filed)
24,000ft
Speed:
(Current/Filed)
425kts
Departed: 14-Jul-19 01:08 PM
Arrived: 14-Jul-19 01:56 PM
Distance/Time
Traveled:
388nm/0:48
Distance/Time
To Go:
Arrived

Flight Plot

Page will automatically refresh every two minutes.

Flight plan parsing failed; only flown route is shown


Map Options




Map Legend


Flown Route
Filed Route
Departure Airport
Arrival Airport
Navaid (VOR, NDB)
Fix

Horizontal Profiles

Position Reports

Time Latitude Longitude Heading Altitude Ground
Speed
14-Jul-19 13:06 19.452322 -87.146517 189 24068ft 445kts
14-Jul-19 13:07 19.332280 -87.174486 189 24068ft 445kts
14-Jul-19 13:08 19.212110 -87.202448 189 24572ft 449kts
14-Jul-19 13:09 19.089082 -87.231042 189 26244ft 459kts
14-Jul-19 13:10 18.962033 -87.260492 190 27746ft 469kts
14-Jul-19 13:11 18.834999 -87.289898 191 28024ft 465kts
14-Jul-19 13:12 18.707913 -87.319317 191 28020ft 465kts
14-Jul-19 13:13 18.580925 -87.348672 191 28019ft 464kts
14-Jul-19 13:14 18.453541 -87.370866 187 28019ft 463kts
14-Jul-19 13:15 18.325304 -87.392290 187 28019ft 464kts
14-Jul-19 13:16 18.197662 -87.413892 188 28019ft 463kts
14-Jul-19 13:17 18.071433 -87.435256 187 28028ft 462kts
14-Jul-19 13:18 17.945330 -87.456560 188 28034ft 462kts
14-Jul-19 13:19 17.817652 -87.478045 187 28032ft 462kts
14-Jul-19 13:20 17.689603 -87.499586 187 28020ft 462kts
14-Jul-19 13:21 17.561425 -87.521151 187 28013ft 462kts
14-Jul-19 13:22 17.433654 -87.542623 187 28008ft 463kts
14-Jul-19 13:23 17.306825 -87.563908 188 28003ft 463kts
14-Jul-19 13:24 17.178327 -87.585455 188 27998ft 463kts
14-Jul-19 13:25 17.051718 -87.606732 188 27994ft 461kts
14-Jul-19 13:26 16.923168 -87.630931 189 27991ft 466kts
14-Jul-19 13:27 16.795319 -87.655127 188 27989ft 466kts
14-Jul-19 13:28 16.669265 -87.679276 188 27983ft 467kts
14-Jul-19 13:29 16.540493 -87.703531 188 27968ft 467kts
14-Jul-19 13:30 16.411857 -87.727667 188 27960ft 467kts
14-Jul-19 13:31 16.284168 -87.751567 188 27940ft 467kts
14-Jul-19 13:32 16.157392 -87.773823 182 27934ft 465kts
14-Jul-19 13:33 16.033942 -87.745643 158 27937ft 464kts
14-Jul-19 13:34 15.912561 -87.699182 158 27936ft 464kts
14-Jul-19 13:35 15.790706 -87.653074 158 27936ft 464kts
14-Jul-19 13:36 15.669547 -87.607209 158 27936ft 464kts
14-Jul-19 13:37 15.548423 -87.561364 158 27936ft 464kts
14-Jul-19 13:38 15.427357 -87.515590 158 27937ft 464kts
14-Jul-19 13:39 15.305711 -87.469660 158 27944ft 465kts
14-Jul-19 13:40 15.184322 -87.423882 158 27951ft 465kts
14-Jul-19 13:41 15.063341 -87.378309 158 27958ft 465kts
14-Jul-19 13:42 14.942016 -87.332516 158 27066ft 457kts
14-Jul-19 13:43 14.826494 -87.288938 158 23558ft 432kts
14-Jul-19 13:44 14.718378 -87.248405 157 18970ft 410kts
14-Jul-19 13:45 14.610724 -87.207986 157 15551ft 415kts
14-Jul-19 13:46 14.502751 -87.167547 157 12163ft 410kts
14-Jul-19 13:47 14.396179 -87.149551 187 10038ft 362kts
14-Jul-19 13:48 14.309268 -87.165374 186 9777ft 297kts
14-Jul-19 13:49 14.249707 -87.213954 247 8478ft 292kts
14-Jul-19 13:50 14.212138 -87.287034 221 7827ft 282kts
14-Jul-19 13:51 14.152295 -87.335732 192 6960ft 267kts
14-Jul-19 13:52 14.086572 -87.315757 137 5893ft 254kts
14-Jul-19 13:53 14.049660 -87.261100 121 4496ft 202kts
14-Jul-19 13:54 14.049048 -87.221479 22 3466ft 150kts
14-Jul-19 13:55 14.068802 -87.214977 281 3297ft 10kts
14-Jul-19 13:56 14.065897 -87.216262 199 3297ft 14kts
14-Jul-19 13:57 14.061859 -87.217684 198 3297ft 12kts
14-Jul-19 13:58 14.060757 -87.218706 291 3297ft 2kts

Navigation Log

Ident Type
Flight plan parsing failed, navigation log unavailable